sensor_id;sensor_type;location;lat;lon;timestamp;temperature;humidity
55331;DHT22;58851;42.984;20.336;2022-09-17T00:00:36;409.60;2355.20
55331;DHT22;58851;42.984;20.336;2022-09-17T00:03:02;409.60;2355.20
55331;DHT22;58851;42.984;20.336;2022-09-17T00:05:28;409.80;2355.20
55331;DHT22;58851;42.984;20.336;2022-09-17T00:07:54;409.80;2355.20
55331;DHT22;58851;42.984;20.336;2022-09-17T00:10:20;409.90;2355.20
55331;DHT22;58851;42.984;20.336;2022-09-17T00:12:47;409.90;2355.20
55331;DHT22;58851;42.984;20.336;2022-09-17T00:15:14;409.90;2355.20
55331;DHT22;58851;42.984;20.336;2022-09-17T00:17:40;409.80;2355.20
55331;DHT22;58851;42.984;20.336;2022-09-17T00:20:07;409.80;2355.20
55331;DHT22;58851;42.984;20.336;2022-09-17T00:22:38;409.80;2355.20
55331;DHT22;58851;42.984;20.336;2022-09-17T00:25:05;409.80;2355.20
55331;DHT22;58851;42.984;20.336;2022-09-17T00:27:31;409.80;2355.20
55331;DHT22;58851;42.984;20.336;2022-09-17T00:29:57;409.90;2355.20
55331;DHT22;58851;42.984;20.336;2022-09-17T00:32:23;409.90;2355.20
55331;DHT22;58851;42.984;20.336;2022-09-17T00:34:50;409.90;2355.20
55331;DHT22;58851;42.984;20.336;2022-09-17T00:37:17;409.90;2355.20
55331;DHT22;58851;42.984;20.336;2022-09-17T00:39:43;409.90;2355.20
55331;DHT22;58851;42.984;20.336;2022-09-17T00:42:13;409.90;2355.20
55331;DHT22;58851;42.984;20.336;2022-09-17T00:44:51;409.90;2355.20
55331;DHT22;58851;42.984;20.336;2022-09-17T00:47:33;409.90;2355.20
55331;DHT22;58851;42.984;20.336;2022-09-17T00:52:44;409.90;2355.20
55331;DHT22;58851;42.984;20.336;2022-09-17T00:55:18;409.90;2355.20
55331;DHT22;58851;42.984;20.336;2022-09-17T00:57:45;410.00;2355.20
55331;DHT22;58851;42.984;20.336;2022-09-17T01:00:12;409.80;2355.20
55331;DHT22;58851;42.984;20.336;2022-09-17T01:02:41;409.80;2355.20
55331;DHT22;58851;42.984;20.336;2022-09-17T01:05:08;409.80;2355.20
55331;DHT22;58851;42.984;20.336;2022-09-17T01:07:39;409.80;2355.20
55331;DHT22;58851;42.984;20.336;2022-09-17T01:21:05;409.80;2355.20
55331;DHT22;58851;42.984;20.336;2022-09-17T01:23:50;409.80;2355.20
55331;DHT22;58851;42.984;20.336;2022-09-17T01:31:54;409.80;2355.20
55331;DHT22;58851;42.984;20.336;2022-09-17T01:35:24;409.60;2355.20
55331;DHT22;58851;42.984;20.336;2022-09-17T01:38:09;409.70;2355.20
55331;DHT22;58851;42.984;20.336;2022-09-17T01:44:06;384.90;2329.60
55331;DHT22;58851;42.984;20.336;2022-09-17T01:49:03;384.70;2329.60
55331;DHT22;58851;42.984;20.336;2022-09-17T01:51:38;384.60;2329.60
55331;DHT22;58851;42.984;20.336;2022-09-17T01:54:41;384.70;2329.60
55331;DHT22;58851;42.984;20.336;2022-09-17T01:57:25;384.80;2329.60
55331;DHT22;58851;42.984;20.336;2022-09-17T02:00:06;384.80;2329.60
55331;DHT22;58851;42.984;20.336;2022-09-17T02:02:39;384.90;2329.60
55331;DHT22;58851;42.984;20.336;2022-09-17T02:08:01;384.90;2329.60
55331;DHT22;58851;42.984;20.336;2022-09-17T02:10:35;384.90;2329.60
55331;DHT22;58851;42.984;20.336;2022-09-17T02:13:13;384.90;2329.60
55331;DHT22;58851;42.984;20.336;2022-09-17T02:15:46;384.90;2329.60
55331;DHT22;58851;42.984;20.336;2022-09-17T02:18:39;384.90;2329.60
55331;DHT22;58851;42.984;20.336;2022-09-17T02:21:22;384.90;2329.60
55331;DHT22;58851;42.984;20.336;2022-09-17T02:27:00;384.90;2329.60
55331;DHT22;58851;42.984;20.336;2022-09-17T02:29:38;384.90;2329.60
55331;DHT22;58851;42.984;20.336;2022-09-17T02:32:05;384.80;2329.60
55331;DHT22;58851;42.984;20.336;2022-09-17T02:34:31;384.80;2329.60
55331;DHT22;58851;42.984;20.336;2022-09-17T02:36:57;384.90;2329.60
55331;DHT22;58851;42.984;20.336;2022-09-17T02:39:24;384.80;2329.60
55331;DHT22;58851;42.984;20.336;2022-09-17T02:42:09;384.80;2329.60
55331;DHT22;58851;42.984;20.336;2022-09-17T02:45:14;384.60;2329.60
55331;DHT22;58851;42.984;20.336;2022-09-17T02:50:23;384.70;2329.60
55331;DHT22;58851;42.984;20.336;2022-09-17T02:53:17;384.50;2329.60
55331;DHT22;58851;42.984;20.336;2022-09-17T02:56:09;384.70;2329.60
55331;DHT22;58851;42.984;20.336;2022-09-17T03:01:33;384.70;2329.60
55331;DHT22;58851;42.984;20.336;2022-09-17T03:04:02;384.60;2329.60
55331;DHT22;58851;42.984;20.336;2022-09-17T03:06:29;384.60;2329.60
55331;DHT22;58851;42.984;20.336;2022-09-17T03:08:55;384.70;2329.60
55331;DHT22;58851;42.984;20.336;2022-09-17T03:11:22;384.70;2329.60
55331;DHT22;58851;42.984;20.336;2022-09-17T03:13:48;384.70;2329.60
55331;DHT22;58851;42.984;20.336;2022-09-17T03:16:14;384.80;2329.60
55331;DHT22;58851;42.984;20.336;2022-09-17T03:18:40;384.80;2329.60
55331;DHT22;58851;42.984;20.336;2022-09-17T03:21:05;384.70;2329.60
55331;DHT22;58851;42.984;20.336;2022-09-17T03:23:31;384.70;2329.60
55331;DHT22;58851;42.984;20.336;2022-09-17T03:25:58;384.80;2329.60
55331;DHT22;58851;42.984;20.336;2022-09-17T03:28:24;384.70;2329.60
55331;DHT22;58851;42.984;20.336;2022-09-17T03:30:51;384.80;2329.60
55331;DHT22;58851;42.984;20.336;2022-09-17T03:33:17;384.80;2329.60
55331;DHT22;58851;42.984;20.336;2022-09-17T03:35:44;384.90;2329.60
55331;DHT22;58851;42.984;20.336;2022-09-17T03:38:11;384.90;2329.60
55331;DHT22;58851;42.984;20.336;2022-09-17T03:40:37;384.80;2329.60
55331;DHT22;58851;42.984;20.336;2022-09-17T03:43:03;384.80;2329.60
55331;DHT22;58851;42.984;20.336;2022-09-17T03:45:29;384.70;2329.60
55331;DHT22;58851;42.984;20.336;2022-09-17T03:47:55;384.80;2329.60
55331;DHT22;58851;42.984;20.336;2022-09-17T03:50:21;384.70;2329.60
55331;DHT22;58851;42.984;20.336;2022-09-17T03:52:47;384.70;2329.60
55331;DHT22;58851;42.984;20.336;2022-09-17T03:55:13;384.80;2329.60
55331;DHT22;58851;42.984;20.336;2022-09-17T03:57:40;384.70;2329.60
55331;DHT22;58851;42.984;20.336;2022-09-17T04:00:06;384.70;2329.60
55331;DHT22;58851;42.984;20.336;2022-09-17T04:02:33;384.70;2329.60
55331;DHT22;58851;42.984;20.336;2022-09-17T04:04:59;384.70;2329.60
55331;DHT22;58851;42.984;20.336;2022-09-17T04:07:24;384.70;2329.60
55331;DHT22;58851;42.984;20.336;2022-09-17T04:09:50;384.50;2329.60
55331;DHT22;58851;42.984;20.336;2022-09-17T04:12:16;384.50;2329.60
55331;DHT22;58851;42.984;20.336;2022-09-17T04:14:42;384.50;2329.60
55331;DHT22;58851;42.984;20.336;2022-09-17T04:17:07;384.50;2329.60
55331;DHT22;58851;42.984;20.336;2022-09-17T04:19:33;384.60;2329.60
55331;DHT22;58851;42.984;20.336;2022-09-17T04:21:59;384.60;2329.60
55331;DHT22;58851;42.984;20.336;2022-09-17T04:24:25;384.70;2329.60
55331;DHT22;58851;42.984;20.336;2022-09-17T04:26:51;384.80;2329.60
55331;DHT22;58851;42.984;20.336;2022-09-17T04:29:16;384.70;2329.60
55331;DHT22;58851;42.984;20.336;2022-09-17T04:31:42;384.70;2329.60
55331;DHT22;58851;42.984;20.336;2022-09-17T04:34:08;384.70;2329.60
55331;DHT22;58851;42.984;20.336;2022-09-17T04:36:34;384.70;2329.60
55331;DHT22;58851;42.984;20.336;2022-09-17T04:39:01;384.80;2329.60
55331;DHT22;58851;42.984;20.336;2022-09-17T04:41:26;384.80;2329.60
55331;DHT22;58851;42.984;20.336;2022-09-17T04:43:52;384.90;2329.60
55331;DHT22;58851;42.984;20.336;2022-09-17T04:46:18;384.90;2329.60
55331;DHT22;58851;42.984;20.336;2022-09-17T04:48:44;384.80;2329.60
55331;DHT22;58851;42.984;20.336;2022-09-17T04:51:09;384.70;2329.60
55331;DHT22;58851;42.984;20.336;2022-09-17T04:53:35;384.80;2329.60
55331;DHT22;58851;42.984;20.336;2022-09-17T04:56:03;384.90;2329.60
55331;DHT22;58851;42.984;20.336;2022-09-17T04:58:28;384.90;2329.60
55331;DHT22;58851;42.984;20.336;2022-09-17T05:00:55;384.90;2329.60
55331;DHT22;58851;42.984;20.336;2022-09-17T05:03:21;384.90;2329.60
55331;DHT22;58851;42.984;20.336;2022-09-17T05:05:47;384.80;2329.60
55331;DHT22;58851;42.984;20.336;2022-09-17T05:08:13;384.80;2329.60
55331;DHT22;58851;42.984;20.336;2022-09-17T05:10:39;384.80;2329.60
55331;DHT22;58851;42.984;20.336;2022-09-17T05:13:04;384.80;2329.60
55331;DHT22;58851;42.984;20.336;2022-09-17T05:15:30;384.90;2329.60
55331;DHT22;58851;42.984;20.336;2022-09-17T05:17:56;409.60;2355.20
55331;DHT22;58851;42.984;20.336;2022-09-17T05:20:22;409.60;2355.20
55331;DHT22;58851;42.984;20.336;2022-09-17T05:22:49;409.70;2176.00
55331;DHT22;58851;42.984;20.336;2022-09-17T05:25:20;409.60;2355.20
55331;DHT22;58851;42.984;20.336;2022-09-17T05:27:50;409.60;2355.20
55331;DHT22;58851;42.984;20.336;2022-09-17T05:30:16;409.70;2201.60
55331;DHT22;58851;42.984;20.336;2022-09-17T05:32:42;409.80;2304.00
55331;DHT22;58851;42.984;20.336;2022-09-17T05:35:09;409.80;2355.20
55331;DHT22;58851;42.984;20.336;2022-09-17T05:37:35;409.80;2022.40
55331;DHT22;58851;42.984;20.336;2022-09-17T05:40:03;409.90;2355.20
55331;DHT22;58851;42.984;20.336;2022-09-17T05:42:31;410.00;2355.20
55331;DHT22;58851;42.984;20.336;2022-09-17T05:44:57;410.00;2355.20
55331;DHT22;58851;42.984;20.336;2022-09-17T05:47:22;410.00;2355.20
55331;DHT22;58851;42.984;20.336;2022-09-17T05:49:48;410.10;2355.20
55331;DHT22;58851;42.984;20.336;2022-09-17T05:52:14;410.10;2355.20
55331;DHT22;58851;42.984;20.336;2022-09-17T05:54:40;410.10;2355.20
55331;DHT22;58851;42.984;20.336;2022-09-17T05:57:06;410.10;2355.20
55331;DHT22;58851;42.984;20.336;2022-09-17T05:59:32;410.10;2355.20
55331;DHT22;58851;42.984;20.336;2022-09-17T06:01:58;410.10;2355.20
55331;DHT22;58851;42.984;20.336;2022-09-17T06:04:24;410.20;2355.20
55331;DHT22;58851;42.984;20.336;2022-09-17T06:06:50;410.10;2355.20
55331;DHT22;58851;42.984;20.336;2022-09-17T06:09:16;410.10;2355.20
55331;DHT22;58851;42.984;20.336;2022-09-17T06:11:41;410.10;2355.20
55331;DHT22;58851;42.984;20.336;2022-09-17T06:14:08;410.20;2355.20
55331;DHT22;58851;42.984;20.336;2022-09-17T06:16:34;410.20;2355.20
55331;DHT22;58851;42.984;20.336;2022-09-17T06:18:59;410.20;2355.20
55331;DHT22;58851;42.984;20.336;2022-09-17T06:21:25;410.20;2355.20
55331;DHT22;58851;42.984;20.336;2022-09-17T06:23:51;410.20;2355.20
55331;DHT22;58851;42.984;20.336;2022-09-17T06:26:17;410.20;2355.20
55331;DHT22;58851;42.984;20.336;2022-09-17T06:28:44;410.30;2355.20
55331;DHT22;58851;42.984;20.336;2022-09-17T06:31:11;410.30;2355.20
55331;DHT22;58851;42.984;20.336;2022-09-17T06:33:37;410.30;2355.20
55331;DHT22;58851;42.984;20.336;2022-09-17T06:36:06;410.30;2355.20
55331;DHT22;58851;42.984;20.336;2022-09-17T06:38:33;410.20;2355.20
55331;DHT22;58851;42.984;20.336;2022-09-17T06:41:00;410.20;2355.20
55331;DHT22;58851;42.984;20.336;2022-09-17T06:43:26;410.20;2355.20
55331;DHT22;58851;42.984;20.336;2022-09-17T06:46:00;410.30;2355.20
55331;DHT22;58851;42.984;20.336;2022-09-17T06:48:27;410.20;2355.20
55331;DHT22;58851;42.984;20.336;2022-09-17T06:50:55;410.10;2355.20
55331;DHT22;58851;42.984;20.336;2022-09-17T06:53:22;410.20;2355.20
55331;DHT22;58851;42.984;20.336;2022-09-17T06:55:48;410.20;2355.20
55331;DHT22;58851;42.984;20.336;2022-09-17T06:58:15;410.20;2355.20
55331;DHT22;58851;42.984;20.336;2022-09-17T07:00:41;410.20;2355.20
55331;DHT22;58851;42.984;20.336;2022-09-17T07:03:08;410.20;2355.20
55331;DHT22;58851;42.984;20.336;2022-09-17T07:05:34;410.20;2355.20
55331;DHT22;58851;42.984;20.336;2022-09-17T07:08:01;410.10;2355.20
55331;DHT22;58851;42.984;20.336;2022-09-17T07:10:30;410.10;2355.20
55331;DHT22;58851;42.984;20.336;2022-09-17T07:12:56;410.10;2355.20
55331;DHT22;58851;42.984;20.336;2022-09-17T07:15:23;410.00;2355.20
55331;DHT22;58851;42.984;20.336;2022-09-17T07:17:49;410.10;2355.20
55331;DHT22;58851;42.984;20.336;2022-09-17T07:20:16;410.10;2355.20
55331;DHT22;58851;42.984;20.336;2022-09-17T07:22:42;410.10;2355.20
55331;DHT22;58851;42.984;20.336;2022-09-17T07:25:08;410.00;2355.20
55331;DHT22;58851;42.984;20.336;2022-09-17T07:27:34;409.90;2048.00
55331;DHT22;58851;42.984;20.336;2022-09-17T07:30:00;410.00;2048.00
55331;DHT22;58851;42.984;20.336;2022-09-17T07:32:28;410.10;2355.20
55331;DHT22;58851;42.984;20.336;2022-09-17T07:34:55;410.10;2355.20
55331;DHT22;58851;42.984;20.336;2022-09-17T07:37:21;410.20;2355.20
55331;DHT22;58851;42.984;20.336;2022-09-17T07:39:47;410.20;2355.20
55331;DHT22;58851;42.984;20.336;2022-09-17T07:42:13;410.20;2355.20
55331;DHT22;58851;42.984;20.336;2022-09-17T07:44:39;410.30;2355.20
55331;DHT22;58851;42.984;20.336;2022-09-17T07:47:05;410.30;2355.20
55331;DHT22;58851;42.984;20.336;2022-09-17T07:49:30;410.30;2355.20
55331;DHT22;58851;42.984;20.336;2022-09-17T07:51:56;410.40;2355.20
55331;DHT22;58851;42.984;20.336;2022-09-17T07:54:24;410.40;2355.20
55331;DHT22;58851;42.984;20.336;2022-09-17T07:56:50;410.30;2355.20
55331;DHT22;58851;42.984;20.336;2022-09-17T07:59:16;410.30;2355.20
55331;DHT22;58851;42.984;20.336;2022-09-17T08:01:42;409.90;2355.20
55331;DHT22;58851;42.984;20.336;2022-09-17T08:04:08;409.80;2355.20
55331;DHT22;58851;42.984;20.336;2022-09-17T08:06:37;409.80;2355.20
55331;DHT22;58851;42.984;20.336;2022-09-17T08:09:04;409.60;2355.20
55331;DHT22;58851;42.984;20.336;2022-09-17T08:11:31;409.80;2355.20
55331;DHT22;58851;42.984;20.336;2022-09-17T08:13:57;409.80;2355.20
55331;DHT22;58851;42.984;20.336;2022-09-17T08:16:23;409.90;2355.20
55331;DHT22;58851;42.984;20.336;2022-09-17T08:18:54;409.90;2355.20
55331;DHT22;58851;42.984;20.336;2022-09-17T08:21:20;409.90;2355.20
55331;DHT22;58851;42.984;20.336;2022-09-17T08:23:46;410.10;2355.20
55331;DHT22;58851;42.984;20.336;2022-09-17T08:26:17;410.10;2355.20
55331;DHT22;58851;42.984;20.336;2022-09-17T08:28:47;410.10;2355.20
55331;DHT22;58851;42.984;20.336;2022-09-17T08:31:15;410.10;2355.20
55331;DHT22;58851;42.984;20.336;2022-09-17T08:33:42;410.30;2355.20
55331;DHT22;58851;42.984;20.336;2022-09-17T08:36:10;410.30;2355.20
55331;DHT22;58851;42.984;20.336;2022-09-17T08:38:37;410.40;2355.20
55331;DHT22;58851;42.984;20.336;2022-09-17T08:46:26;410.30;2355.20
55331;DHT22;58851;42.984;20.336;2022-09-17T08:49:11;410.40;2355.20
55331;DHT22;58851;42.984;20.336;2022-09-17T08:52:21;410.20;2355.20
55331;DHT22;58851;42.984;20.336;2022-09-17T09:01:23;435.20;2355.20
55331;DHT22;58851;42.984;20.336;2022-09-17T09:06:43;435.20;2355.20
55331;DHT22;58851;42.984;20.336;2022-09-17T09:09:15;435.30;2355.20
55331;DHT22;58851;42.984;20.336;2022-09-17T09:11:43;435.30;2355.20
55331;DHT22;58851;42.984;20.336;2022-09-17T09:14:27;435.30;2355.20
55331;DHT22;58851;42.984;20.336;2022-09-17T09:16:55;435.40;2355.20
55331;DHT22;58851;42.984;20.336;2022-09-17T09:19:40;435.50;2355.20
55331;DHT22;58851;42.984;20.336;2022-09-17T09:24:58;435.50;2355.20
55331;DHT22;58851;42.984;20.336;2022-09-17T09:27:31;435.70;2355.20
55331;DHT22;58851;42.984;20.336;2022-09-17T09:35:11;460.80;2355.20
55331;DHT22;58851;42.984;20.336;2022-09-17T09:37:40;461.00;2124.80
55331;DHT22;58851;42.984;20.336;2022-09-17T09:40:18;461.30;2380.80
55331;DHT22;58851;42.984;20.336;2022-09-17T09:42:47;486.40;2380.80
55331;DHT22;58851;42.984;20.336;2022-09-17T09:45:19;486.60;2380.80
55331;DHT22;58851;42.984;20.336;2022-09-17T09:56:59;512.80;2380.80
55331;DHT22;58851;42.984;20.336;2022-09-17T09:59:28;537.60;2406.40
55331;DHT22;58851;42.984;20.336;2022-09-17T10:01:54;538.00;1766.40
55331;DHT22;58851;42.984;20.336;2022-09-17T10:04:25;538.20;2406.40
55331;DHT22;58851;42.984;20.336;2022-09-17T10:07:06;538.50;640.00
55331;DHT22;58851;42.984;20.336;2022-09-17T10:09:34;563.20;128.00
55331;DHT22;58851;42.984;20.336;2022-09-17T10:12:19;563.20;128.00
55331;DHT22;58851;42.984;20.336;2022-09-17T10:14:46;563.20;128.00
55331;DHT22;58851;42.984;20.336;2022-09-17T10:17:23;563.50;128.00
55331;DHT22;58851;42.984;20.336;2022-09-17T10:22:54;563.60;128.00
55331;DHT22;58851;42.984;20.336;2022-09-17T10:25:27;563.70;128.00
55331;DHT22;58851;42.984;20.336;2022-09-17T10:27:54;563.60;128.00
55331;DHT22;58851;42.984;20.336;2022-09-17T10:30:22;563.80;128.00
55331;DHT22;58851;42.984;20.336;2022-09-17T10:35:39;563.80;614.40
55331;DHT22;58851;42.984;20.336;2022-09-17T10:38:29;564.10;281.60
55331;DHT22;58851;42.984;20.336;2022-09-17T10:41:20;588.80;128.00
55331;DHT22;58851;42.984;20.336;2022-09-17T10:43:47;588.90;128.00
55331;DHT22;58851;42.984;20.336;2022-09-17T10:48:45;589.00;128.00
55331;DHT22;58851;42.984;20.336;2022-09-17T10:51:20;589.10;128.00
55331;DHT22;58851;42.984;20.336;2022-09-17T10:56:54;589.10;128.00
55331;DHT22;58851;42.984;20.336;2022-09-17T10:59:39;589.10;128.00
55331;DHT22;58851;42.984;20.336;2022-09-17T11:10:29;589.40;128.00
55331;DHT22;58851;42.984;20.336;2022-09-17T11:13:56;589.50;128.00
55331;DHT22;58851;42.984;20.336;2022-09-17T11:16:17;589.70;128.00
55331;DHT22;58851;42.984;20.336;2022-09-17T11:21:48;615.00;128.00
55331;DHT22;58851;42.984;20.336;2022-09-17T11:30:25;640.00;128.00
55331;DHT22;58851;42.984;20.336;2022-09-17T11:35:39;640.00;128.00
55331;DHT22;58851;42.984;20.336;2022-09-17T11:45:50;615.00;128.00
55331;DHT22;58851;42.984;20.336;2022-09-17T11:48:21;614.50;128.00
55331;DHT22;58851;42.984;20.336;2022-09-17T11:50:56;614.40;128.00
55331;DHT22;58851;42.984;20.336;2022-09-17T11:53:30;614.50;128.00
55331;DHT22;58851;42.984;20.336;2022-09-17T11:58:45;614.40;128.00
55331;DHT22;58851;42.984;20.336;2022-09-17T12:04:40;589.30;128.00
55331;DHT22;58851;42.984;20.336;2022-09-17T12:09:51;589.50;128.00
55331;DHT22;58851;42.984;20.336;2022-09-17T12:12:21;589.50;128.00
55331;DHT22;58851;42.984;20.336;2022-09-17T12:15:19;589.50;128.00
55331;DHT22;58851;42.984;20.336;2022-09-17T12:18:24;589.30;128.00
55331;DHT22;58851;42.984;20.336;2022-09-17T12:20:56;589.40;128.00
55331;DHT22;58851;42.984;20.336;2022-09-17T12:23:34;589.60;128.00
55331;DHT22;58851;42.984;20.336;2022-09-17T12:34:05;589.60;128.00
55331;DHT22;58851;42.984;20.336;2022-09-17T12:39:48;614.70;128.00
55331;DHT22;58851;42.984;20.336;2022-09-17T12:42:33;614.70;128.00
55331;DHT22;58851;42.984;20.336;2022-09-17T12:45:15;614.60;128.00
55331;DHT22;58851;42.984;20.336;2022-09-17T12:47:57;614.70;128.00
55331;DHT22;58851;42.984;20.336;2022-09-17T12:50:44;614.50;128.00
55331;DHT22;58851;42.984;20.336;2022-09-17T13:01:12;614.40;128.00
55331;DHT22;58851;42.984;20.336;2022-09-17T13:03:47;589.70;128.00
55331;DHT22;58851;42.984;20.336;2022-09-17T13:09:33;614.40;128.00
55331;DHT22;58851;42.984;20.336;2022-09-17T13:15:38;614.80;128.00
55331;DHT22;58851;42.984;20.336;2022-09-17T13:18:33;614.70;128.00
55331;DHT22;58851;42.984;20.336;2022-09-17T13:21:21;614.70;128.00
55331;DHT22;58851;42.984;20.336;2022-09-17T13:23:49;614.80;128.00
55331;DHT22;58851;42.984;20.336;2022-09-17T13:26:18;614.90;128.00
55331;DHT22;58851;42.984;20.336;2022-09-17T13:28:49;615.00;128.00
55331;DHT22;58851;42.984;20.336;2022-09-17T13:31:45;615.20;128.00
55331;DHT22;58851;42.984;20.336;2022-09-17T13:37:02;614.90;665.60
55331;DHT22;58851;42.984;20.336;2022-09-17T13:39:38;614.50;128.00
55331;DHT22;58851;42.984;20.336;2022-09-17T13:44:39;614.40;128.00
55331;DHT22;58851;42.984;20.336;2022-09-17T13:47:25;589.50;128.00
55331;DHT22;58851;42.984;20.336;2022-09-17T13:50:05;589.40;128.00
55331;DHT22;58851;42.984;20.336;2022-09-17T13:52:38;614.40;128.00
55331;DHT22;58851;42.984;20.336;2022-09-17T13:55:07;614.80;128.00
55331;DHT22;58851;42.984;20.336;2022-09-17T13:57:48;614.90;128.00
55331;DHT22;58851;42.984;20.336;2022-09-17T14:00:53;614.80;128.00
55331;DHT22;58851;42.984;20.336;2022-09-17T14:24:52;589.50;128.00
55331;DHT22;58851;42.984;20.336;2022-09-17T14:27:46;615.00;128.00
55331;DHT22;58851;42.984;20.336;2022-09-17T14:30:25;614.80;128.00
55331;DHT22;58851;42.984;20.336;2022-09-17T14:33:15;614.70;128.00
55331;DHT22;58851;42.984;20.336;2022-09-17T14:35:43;614.40;128.00
55331;DHT22;58851;42.984;20.336;2022-09-17T14:38:19;614.50;128.00
55331;DHT22;58851;42.984;20.336;2022-09-17T14:40:49;640.20;128.00
55331;DHT22;58851;42.984;20.336;2022-09-17T14:43:25;640.70;128.00
55331;DHT22;58851;42.984;20.336;2022-09-17T14:45:56;640.40;128.00
55331;DHT22;58851;42.984;20.336;2022-09-17T14:48:26;640.10;128.00
55331;DHT22;58851;42.984;20.336;2022-09-17T14:53:37;640.60;128.00
55331;DHT22;58851;42.984;20.336;2022-09-17T14:56:04;640.20;128.00
55331;DHT22;58851;42.984;20.336;2022-09-17T14:58:33;615.30;128.00
55331;DHT22;58851;42.984;20.336;2022-09-17T15:01:00;615.10;128.00
55331;DHT22;58851;42.984;20.336;2022-09-17T15:03:26;615.20;128.00
55331;DHT22;58851;42.984;20.336;2022-09-17T15:05:52;615.20;128.00
55331;DHT22;58851;42.984;20.336;2022-09-17T15:08:23;615.00;128.00
55331;DHT22;58851;42.984;20.336;2022-09-17T15:11:00;614.90;128.00
55331;DHT22;58851;42.984;20.336;2022-09-17T15:13:27;640.10;128.00
55331;DHT22;58851;42.984;20.336;2022-09-17T15:15:58;615.00;128.00
55331;DHT22;58851;42.984;20.336;2022-09-17T15:18:37;614.70;128.00
55331;DHT22;58851;42.984;20.336;2022-09-17T15:21:14;614.50;307.20
55331;DHT22;58851;42.984;20.336;2022-09-17T15:23:42;589.70;256.00
55331;DHT22;58851;42.984;20.336;2022-09-17T15:26:11;589.60;409.60
55331;DHT22;58851;42.984;20.336;2022-09-17T15:28:42;589.50;358.40
55331;DHT22;58851;42.984;20.336;2022-09-17T15:31:16;589.50;460.80
55331;DHT22;58851;42.984;20.336;2022-09-17T15:33:43;589.30;435.20
55331;DHT22;58851;42.984;20.336;2022-09-17T15:36:23;589.30;614.40
55331;DHT22;58851;42.984;20.336;2022-09-17T15:38:50;589.20;128.00
55331;DHT22;58851;42.984;20.336;2022-09-17T15:43:48;589.20;128.00
55331;DHT22;58851;42.984;20.336;2022-09-17T15:46:34;589.20;128.00
55331;DHT22;58851;42.984;20.336;2022-09-17T15:49:01;589.00;128.00
55331;DHT22;58851;42.984;20.336;2022-09-17T15:51:32;588.90;128.00
55331;DHT22;58851;42.984;20.336;2022-09-17T15:54:03;588.90;128.00
55331;DHT22;58851;42.984;20.336;2022-09-17T15:56:32;564.10;128.00
55331;DHT22;58851;42.984;20.336;2022-09-17T15:59:43;564.10;128.00
55331;DHT22;58851;42.984;20.336;2022-09-17T16:01:52;563.90;128.00
55331;DHT22;58851;42.984;20.336;2022-09-17T16:04:21;563.70;128.00
55331;DHT22;58851;42.984;20.336;2022-09-17T16:09:44;563.60;128.00
55331;DHT22;58851;42.984;20.336;2022-09-17T16:12:23;563.60;128.00
55331;DHT22;58851;42.984;20.336;2022-09-17T16:14:54;563.50;128.00
55331;DHT22;58851;42.984;20.336;2022-09-17T16:19:58;563.40;128.00
55331;DHT22;58851;42.984;20.336;2022-09-17T16:22:25;563.40;128.00
55331;DHT22;58851;42.984;20.336;2022-09-17T16:24:51;538.50;128.00
55331;DHT22;58851;42.984;20.336;2022-09-17T16:27:21;538.30;128.00
55331;DHT22;58851;42.984;20.336;2022-09-17T16:29:49;538.20;128.00
55331;DHT22;58851;42.984;20.336;2022-09-17T16:32:15;537.90;128.00
55331;DHT22;58851;42.984;20.336;2022-09-17T16:34:41;537.90;128.00
55331;DHT22;58851;42.984;20.336;2022-09-17T16:37:08;537.80;128.00
55331;DHT22;58851;42.984;20.336;2022-09-17T16:39:35;537.60;128.00
55331;DHT22;58851;42.984;20.336;2022-09-17T16:42:01;512.90;128.00
55331;DHT22;58851;42.984;20.336;2022-09-17T16:44:27;512.70;128.00
55331;DHT22;58851;42.984;20.336;2022-09-17T16:46:52;512.60;128.00
55331;DHT22;58851;42.984;20.336;2022-09-17T16:49:18;512.50;128.00
55331;DHT22;58851;42.984;20.336;2022-09-17T16:51:44;512.50;128.00
55331;DHT22;58851;42.984;20.336;2022-09-17T16:54:10;512.40;128.00
55331;DHT22;58851;42.984;20.336;2022-09-17T16:56:35;512.20;128.00
55331;DHT22;58851;42.984;20.336;2022-09-17T16:59:01;512.00;128.00
55331;DHT22;58851;42.984;20.336;2022-09-17T17:01:27;487.30;128.00
55331;DHT22;58851;42.984;20.336;2022-09-17T17:03:53;512.00;128.00
55331;DHT22;58851;42.984;20.336;2022-09-17T17:06:21;487.30;128.00
55331;DHT22;58851;42.984;20.336;2022-09-17T17:08:47;487.20;128.00
55331;DHT22;58851;42.984;20.336;2022-09-17T17:11:13;487.20;128.00
55331;DHT22;58851;42.984;20.336;2022-09-17T17:13:41;487.10;128.00
55331;DHT22;58851;42.984;20.336;2022-09-17T17:16:09;486.80;128.00
55331;DHT22;58851;42.984;20.336;2022-09-17T17:18:35;486.80;128.00
55331;DHT22;58851;42.984;20.336;2022-09-17T17:21:05;486.70;128.00
55331;DHT22;58851;42.984;20.336;2022-09-17T17:23:32;486.50;128.00
55331;DHT22;58851;42.984;20.336;2022-09-17T17:25:58;461.70;128.00
55331;DHT22;58851;42.984;20.336;2022-09-17T17:28:24;461.70;128.00
55331;DHT22;58851;42.984;20.336;2022-09-17T17:30:51;486.40;128.00
55331;DHT22;58851;42.984;20.336;2022-09-17T17:33:17;461.70;128.00
55331;DHT22;58851;42.984;20.336;2022-09-17T17:35:43;486.40;128.00
55331;DHT22;58851;42.984;20.336;2022-09-17T17:38:10;461.70;128.00
55331;DHT22;58851;42.984;20.336;2022-09-17T17:40:35;461.70;128.00
55331;DHT22;58851;42.984;20.336;2022-09-17T17:43:01;461.60;128.00
55331;DHT22;58851;42.984;20.336;2022-09-17T17:45:27;461.60;128.00
55331;DHT22;58851;42.984;20.336;2022-09-17T17:47:53;461.60;128.00
55331;DHT22;58851;42.984;20.336;2022-09-17T17:50:19;461.30;128.00
55331;DHT22;58851;42.984;20.336;2022-09-17T17:52:45;461.40;128.00
55331;DHT22;58851;42.984;20.336;2022-09-17T17:55:13;461.40;128.00
55331;DHT22;58851;42.984;20.336;2022-09-17T17:57:39;461.40;128.00
55331;DHT22;58851;42.984;20.336;2022-09-17T18:00:06;461.30;128.00